Time;durP1;ratioP1;P1;durP2;ratioP2;P2;SDS_P1;SDS_P2;PMS_P1;PMS_P2;Temp;Humidity;BMP_temperature;BMP_pressure;BME280_temperature;BME280_humidity;BME280_pressure;Samples;Min_cycle;Max_cycle;Signal;HPM_P1;HPM_P2
2022/11/08 00:03:24;;;;;;;27.62;13.58;;;;;;;4.95;82.44;100914.59;1756612;81;21143;-61
2022/11/08 00:14:18;;;;;;;27.52;14.13;;;;;;;4.97;82.24;100900.36;1753858;81;21092;-60
2022/11/08 00:16:47;;;;;;;26.90;14.05;;;;;;;4.96;82.20;100889.14;1769111;81;21083;-63
2022/11/08 00:19:18;;;;;;;27.52;12.63;;;;;;;4.95;82.11;100891.50;1744182;81;21108;-61
2022/11/08 00:21:48;;;;;;;27.65;14.60;;;;;;;4.94;81.99;100889.29;1769019;79;21407;-60
2022/11/08 00:24:17;;;;;;;26.68;13.93;;;;;;;4.92;82.03;100890.45;1744015;81;21143;-62
2022/11/08 00:26:47;;;;;;;29.25;14.58;;;;;;;4.89;81.96;100882.59;1756439;81;21548;-62
2022/11/08 00:29:16;;;;;;;29.40;14.25;;;;;;;4.84;81.99;100890.33;1744269;81;21120;-62
2022/11/08 00:31:45;;;;;;;27.87;13.40;;;;;;;4.83;82.04;100900.34;1744491;81;21187;-61
2022/11/08 00:34:16;;;;;;;25.02;13.08;;;;;;;4.80;82.14;100884.84;1758282;80;21099;-61
2022/11/08 00:36:45;;;;;;;25.15;13.78;;;;;;;4.77;82.11;100876.00;1766915;80;21530;-62
2022/11/08 00:39:14;;;;;;;27.60;14.23;;;;;;;4.76;82.20;100874.79;1767584;80;21158;-61
2022/11/08 00:41:43;;;;;;;26.23;14.35;;;;;;;4.70;82.18;100869.45;1755280;80;21098;-60
2022/11/08 00:44:12;;;;;;;24.85;13.45;;;;;;;4.68;82.25;100877.39;1762181;80;21110;-64
2022/11/08 00:46:43;;;;;;;29.15;14.13;;;;;;;4.66;82.35;100872.61;1705395;84;21544;-60
2022/11/08 00:49:12;;;;;;;24.87;12.33;;;;;;;4.64;82.37;100868.69;1708491;84;21146;-62
2022/11/08 00:51:43;;;;;;;27.37;13.85;;;;;;;4.62;82.35;100863.91;1710981;84;21584;-61
2022/11/08 00:54:15;;;;;;;29.07;14.45;;;;;;;4.61;82.42;100863.55;1710325;84;21205;-61
2022/11/08 00:56:44;;;;;;;30.50;14.25;;;;;;;4.62;82.57;100858.48;1710048;84;21102;-61
2022/11/08 00:59:15;;;;;;;26.12;13.58;;;;;;;4.60;82.56;100860.49;1710417;83;21214;-60
2022/11/08 01:01:45;;;;;;;26.15;13.08;;;;;;;4.57;82.55;100859.42;1711136;83;21166;-60
2022/11/08 01:04:15;;;;;;;27.95;13.38;;;;;;;4.55;82.68;100847.86;1719446;80;21181;-65
2022/11/08 01:06:46;;;;;;;25.40;13.50;;;;;;;4.55;82.68;100826.16;1695296;84;21599;-60
2022/11/08 01:09:15;;;;;;;26.05;13.68;;;;;;;4.53;82.62;100841.70;1701678;84;21225;-62
2022/11/08 01:11:46;;;;;;;27.67;14.63;;;;;;;4.50;82.53;100836.57;1692012;84;21134;-61
2022/11/08 01:14:15;;;;;;;27.20;14.47;;;;;;;4.47;82.68;100830.08;1685355;84;21135;-62
2022/11/08 01:16:46;;;;;;;24.87;13.20;;;;;;;4.46;82.74;100829.23;1642182;86;21154;-62
2022/11/08 01:19:15;;;;;;;25.75;12.88;;;;;;;4.45;82.68;100840.23;1641808;86;21179;-60
2022/11/08 01:21:45;;;;;;;26.42;13.65;;;;;;;4.43;82.72;100847.16;1641877;86;21161;-60
2022/11/08 01:24:14;;;;;;;25.95;13.78;;;;;;;4.44;82.76;100857.51;1653036;85;21154;-62
2022/11/08 01:26:45;;;;;;;25.10;13.15;;;;;;;4.44;82.74;100857.51;1693556;84;21198;-61
2022/11/08 01:29:14;;;;;;;26.87;13.18;;;;;;;4.42;82.83;100854.95;1698259;84;21115;-62
2022/11/08 01:31:43;;;;;;;24.50;12.85;;;;;;;4.44;82.96;100858.87;1696788;84;21633;-61
2022/11/08 01:34:12;;;;;;;22.80;12.35;;;;;;;4.44;82.90;100858.36;1710147;80;21118;-62
2022/11/08 01:36:42;;;;;;;26.05;13.38;;;;;;;4.45;82.88;100856.00;1759579;80;21586;-61
2022/11/08 01:39:12;;;;;;;23.62;13.08;;;;;;;4.45;82.88;100860.08;1774443;80;21138;-63
2022/11/08 01:41:43;;;;;;;26.70;12.85;;;;;;;4.47;82.95;100845.00;1749594;80;21118;-60
2022/11/08 01:44:16;;;;;;;25.23;12.85;;;;;;;4.49;82.91;100847.06;1749591;80;21122;-62
2022/11/08 01:46:47;;;;;;;26.15;12.65;;;;;;;4.49;82.79;100838.08;1749438;80;21142;-61
2022/11/08 01:49:33;;;;;;;24.25;11.68;;;;;;;4.49;82.64;100836.22;1750533;80;21615;-60
2022/11/08 01:52:18;;;;;;;23.05;12.40;;;;;;;4.49;82.62;100836.72;1756575;80;21086;-62
2022/11/08 01:55:05;;;;;;;27.82;12.88;;;;;;;4.52;82.63;100822.86;1762228;80;21133;-61
2022/11/08 01:57:48;;;;;;;24.92;13.38;;;;;;;4.54;82.63;100820.34;1774475;80;21188;-62
2022/11/08 02:00:17;;;;;;;25.35;12.50;;;;;;;4.54;82.51;100814.06;1749640;80;21169;-62
2022/11/08 02:02:52;;;;;;;23.80;12.50;;;;;;;4.53;82.37;100830.84;1773804;80;21133;-60
2022/11/08 02:05:26;;;;;;;24.90;11.80;;;;;;;4.53;82.31;100826.78;1762944;80;21592;-61
2022/11/08 02:08:27;;;;;;;22.45;11.45;;;;;;;4.52;82.23;100825.56;1767555;79;21165;-61
2022/11/08 02:10:58;;;;;;;24.92;11.73;;;;;;;4.51;82.22;100834.21;1696104;84;21111;-61
2022/11/08 02:13:29;;;;;;;22.75;11.40;;;;;;;4.51;82.31;100827.42;1685508;84;21223;-61
2022/11/08 02:15:57;;;;;;;23.62;11.97;;;;;;;4.52;82.21;100831.84;1685345;84;21123;-60
2022/11/08 02:18:29;;;;;;;23.22;12.13;;;;;;;4.50;82.17;100839.78;1697132;84;21155;-63
2022/11/08 02:21:23;;;;;;;26.73;13.10;;;;;;;4.48;82.20;100842.64;1685191;84;21633;-62
2022/11/08 02:23:58;;;;;;;25.80;12.00;;;;;;;4.46;82.14;100850.94;1657491;85;21165;-60
2022/11/08 02:26:31;;;;;;;22.02;12.33;;;;;;;4.46;82.24;100859.07;1701713;84;21171;-61
2022/11/08 02:29:21;;;;;;;24.30;12.82;;;;;;;4.45;82.29;100858.72;1742030;80;21126;-61
2022/11/08 02:31:50;;;;;;;23.87;12.50;;;;;;;4.43;82.28;100847.16;1763572;80;21106;-60
2022/11/08 02:34:20;;;;;;;22.45;11.45;;;;;;;4.41;82.37;100841.52;1769569;80;21155;-61
2022/11/08 02:36:51;;;;;;;20.77;10.68;;;;;;;4.42;82.36;100847.30;1782122;80;21156;-61
2022/11/08 02:39:21;;;;;;;21.30;11.00;;;;;;;4.43;82.38;100833.59;1767109;79;21147;-62
2022/11/08 02:41:50;;;;;;;22.00;11.57;;;;;;;4.45;82.39;100841.58;1769137;79;21115;-61
2022/11/08 02:44:19;;;;;;;23.77;11.73;;;;;;;4.46;82.38;100846.01;1762899;80;21143;-59
2022/11/08 02:46:48;;;;;;;25.85;12.00;;;;;;;4.48;82.37;100846.72;1692305;83;21122;-61
2022/11/08 02:49:17;;;;;;;23.45;12.45;;;;;;;4.48;82.29;100841.29;1769964;80;21131;-63
2022/11/08 02:51:46;;;;;;;23.65;11.80;;;;;;;4.47;82.32;100835.51;1769594;80;21130;-61
2022/11/08 02:54:15;;;;;;;22.45;11.12;;;;;;;4.49;82.30;100833.50;1765365;80;21181;-61
2022/11/08 02:56:45;;;;;;;21.20;11.30;;;;;;;4.50;82.23;100829.78;1774446;80;21154;-62
2022/11/08 02:59:14;;;;;;;23.67;11.97;;;;;;;4.51;82.13;100832.00;1769216;80;21163;-60
2022/11/08 03:01:44;;;;;;;23.98;12.15;;;;;;;4.51;82.21;100826.06;1761059;80;21630;-61
2022/11/08 03:04:13;;;;;;;21.90;11.60;;;;;;;4.50;82.03;100823.50;1753440;80;21164;-60
2022/11/08 03:06:44;;;;;;;23.57;12.23;;;;;;;4.48;82.07;100824.16;1761803;79;21640;-62
2022/11/08 03:09:13;;;;;;;22.25;11.78;;;;;;;4.50;82.21;100828.93;1764807;80;21115;-62
2022/11/08 03:11:43;;;;;;;23.98;12.15;;;;;;;4.53;82.15;100828.13;1752578;80;21586;-61
2022/11/08 03:14:12;;;;;;;22.13;11.00;;;;;;;4.52;82.12;100821.00;1703613;83;21196;-61
2022/11/08 03:16:42;;;;;;;20.25;11.12;;;;;;;4.54;82.09;100824.41;1764825;80;21221;-59
2022/11/08 03:19:12;;;;;;;24.65;11.83;;;;;;;4.57;82.07;100832.80;1728352;82;21119;-61
2022/11/08 03:21:42;;;;;;;22.13;11.80;;;;;;;4.58;82.03;100831.29;1764930;80;21120;-61
2022/11/08 03:24:11;;;;;;;24.77;12.03;;;;;;;4.57;81.91;100830.94;1761797;80;21095;-60
2022/11/08 03:26:40;;;;;;;20.95;10.48;;;;;;;4.57;81.90;100826.86;1781973;80;21095;-61
2022/11/08 03:29:09;;;;;;;22.35;10.55;;;;;;;4.58;81.88;100835.86;1769680;80;21104;-61
2022/11/08 03:31:39;;;;;;;26.27;12.05;;;;;;;4.59;81.89;100830.28;1755919;80;21115;-60
2022/11/08 03:34:09;;;;;;;25.88;11.85;;;;;;;4.60;81.95;100827.06;1757108;80;21150;-61
2022/11/08 03:36:38;;;;;;;20.43;10.53;;;;;;;4.62;81.90;100831.84;1787576;80;21095;-66
2022/11/08 03:39:07;;;;;;;23.18;11.63;;;;;;;4.61;81.90;100829.63;1757957;80;21118;-61
2022/11/08 03:41:36;;;;;;;23.65;11.55;;;;;;;4.62;82.04;100836.77;1710255;83;21173;-59
2022/11/08 03:44:05;;;;;;;23.83;11.78;;;;;;;4.61;82.11;100826.92;1721014;82;21659;-60
2022/11/08 03:46:36;;;;;;;23.70;11.57;;;;;;;4.65;82.35;100832.91;1728414;83;21150;-63
2022/11/08 03:49:05;;;;;;;21.37;11.08;;;;;;;4.63;82.56;100835.77;1723690;82;21181;-61
2022/11/08 03:51:35;;;;;;;22.00;11.40;;;;;;;4.67;82.76;100836.33;1723930;82;21155;-60
2022/11/08 03:54:04;;;;;;;22.15;11.63;;;;;;;4.67;82.86;100831.75;1707355;83;21129;-62
2022/11/08 03:56:34;;;;;;;21.70;11.50;;;;;;;4.69;83.10;100840.60;1710278;83;21544;-60
2022/11/08 03:59:03;;;;;;;23.20;11.75;;;;;;;4.69;83.21;100837.03;1703800;83;21221;-60
2022/11/08 04:01:32;;;;;;;22.07;12.13;;;;;;;4.68;83.30;100831.25;1734546;82;21147;-61
2022/11/08 04:04:03;;;;;;;22.82;12.13;;;;;;;4.68;83.54;100828.53;1709614;83;21129;-62
2022/11/08 04:06:31;;;;;;;21.33;11.35;;;;;;;4.70;83.83;100830.09;1706342;83;21154;-62
2022/11/08 04:09:01;;;;;;;24.40;11.03;;;;;;;4.72;84.08;100828.59;1734087;82;21598;-61
2022/11/08 04:17:08;;;;;;;22.55;11.57;;;;;;;4.73;84.08;100824.88;1744055;82;21613;-59
2022/11/08 04:22:25;;;;;;;23.67;11.90;;;;;;;4.70;84.14;100831.45;1738197;82;21573;-60
2022/11/08 04:24:54;;;;;;;21.80;10.88;;;;;;;4.72;84.23;100831.30;1734064;82;21135;-60
2022/11/08 04:27:23;;;;;;;19.37;11.08;;;;;;;4.70;84.15;100836.02;1729458;82;21151;-60
2022/11/08 04:29:53;;;;;;;28.60;12.03;;;;;;;4.67;84.13;100835.83;1733431;82;21563;-60
2022/11/08 04:32:22;;;;;;;25.15;11.95;;;;;;;4.69;84.23;100831.09;1723464;82;21122;-60
2022/11/08 04:34:51;;;;;;;21.85;11.53;;;;;;;4.68;84.28;100823.11;1732778;82;21159;-60
2022/11/08 04:37:22;;;;;;;23.60;11.63;;;;;;;4.67;84.46;100826.32;1756855;81;21187;-60
2022/11/08 04:39:51;;;;;;;24.15;10.82;;;;;;;4.66;84.48;100824.61;1756784;81;21095;-61
2022/11/08 04:42:21;;;;;;;19.77;10.58;;;;;;;4.66;84.53;100830.05;1764899;81;21135;-61
2022/11/08 04:44:51;;;;;;;20.97;10.88;;;;;;;4.67;84.52;100826.83;1754097;81;21275;-61
2022/11/08 04:47:20;;;;;;;20.55;10.95;;;;;;;4.68;84.65;100832.10;1751380;81;21191;-61
2022/11/08 04:49:49;;;;;;;19.27;10.90;;;;;;;4.70;84.67;100830.09;1761511;81;21134;-64
2022/11/08 04:52:18;;;;;;;22.17;11.48;;;;;;;4.67;84.54;100838.53;1761552;81;21119;-60
2022/11/08 04:54:47;;;;;;;22.93;11.55;;;;;;;4.66;84.62;100837.33;1762791;81;21180;-60
2022/11/08 04:57:17;;;;;;;20.72;10.80;;;;;;;4.68;84.66;100835.32;1756674;81;21135;-60
2022/11/08 04:59:47;;;;;;;23.00;10.78;;;;;;;4.70;84.71;100832.81;1754256;81;21194;-62
2022/11/08 05:02:16;;;;;;;22.87;11.80;;;;;;;4.72;84.75;100825.88;1745611;80;21552;-62
2022/11/08 05:04:45;;;;;;;22.55;12.37;;;;;;;4.70;84.68;100837.38;1765362;81;21136;-63
2022/11/08 05:07:14;;;;;;;22.40;11.05;;;;;;;4.68;84.94;100836.17;1761317;81;21147;-62
2022/11/08 05:09:45;;;;;;;22.67;11.30;;;;;;;4.68;85.37;100836.17;1753767;81;21123;-59
2022/11/08 05:12:16;;;;;;;22.67;11.03;;;;;;;4.68;85.78;100834.82;1756688;81;21335;-59
2022/11/08 05:14:48;;;;;;;23.40;11.78;;;;;;;4.68;86.07;100838.03;1718734;82;21159;-58
2022/11/08 05:17:18;;;;;;;27.55;12.50;;;;;;;4.64;86.46;100845.62;1700549;84;21123;-59
2022/11/08 05:25:25;;;;;;;23.80;11.35;;;;;;;4.59;87.38;100856.06;1761201;81;21178;-60
2022/11/08 05:27:55;;;;;;;22.65;11.90;;;;;;;4.57;87.67;100854.00;1761380;81;21147;-59
2022/11/08 05:30:24;;;;;;;24.72;13.05;;;;;;;4.57;87.89;100849.93;1762337;80;21107;-61
2022/11/08 05:32:55;;;;;;;28.83;13.05;;;;;;;4.56;88.12;100851.44;1751161;81;21560;-59
2022/11/08 05:35:25;;;;;;;29.20;18.73;;;;;;;4.57;88.36;100851.29;1752207;80;21108;-58
2022/11/08 05:37:55;;;;;;;28.62;13.03;;;;;;;4.57;88.48;100856.72;1764752;80;21492;-59
2022/11/08 05:40:24;;;;;;;21.93;12.45;;;;;;;4.57;88.62;100858.08;1774147;80;21127;-59
2022/11/08 05:42:56;;;;;;;23.05;12.23;;;;;;;4.53;88.68;100852.55;1756090;80;21121;-60
2022/11/08 05:45:25;;;;;;;25.17;13.30;;;;;;;4.53;88.90;100862.55;1782312;80;21143;-59
2022/11/08 05:48:02;;;;;;;23.80;11.93;;;;;;;4.54;89.08;100859.69;1756656;80;21150;-59
2022/11/08 05:50:27;;;;;;;26.80;13.00;;;;;;;4.58;89.31;100855.71;1773709;80;21586;-59
2022/11/08 05:52:59;;;;;;;27.42;14.33;;;;;;;4.62;89.52;100853.05;1776268;80;21077;-59
2022/11/08 05:55:29;;;;;;;26.55;12.73;;;;;;;4.64;89.63;100851.05;1751943;80;21151;-58
2022/11/08 05:57:58;;;;;;;23.65;12.78;;;;;;;4.65;89.72;100851.41;1751919;80;21604;-58
2022/11/08 06:00:28;;;;;;;26.40;13.35;;;;;;;4.68;89.88;100859.25;1764669;80;21134;-60
2022/11/08 06:02:57;;;;;;;26.23;13.15;;;;;;;4.70;89.96;100867.23;1764047;80;21158;-57
2022/11/08 06:05:27;;;;;;;26.52;13.58;;;;;;;4.73;90.08;100869.66;1764707;80;21180;-58
2022/11/08 06:07:56;;;;;;;29.18;13.55;;;;;;;4.76;90.21;100863.93;1751934;80;21138;-58
2022/11/08 06:10:26;;;;;;;22.20;12.55;;;;;;;4.80;90.23;100871.27;1752682;80;21178;-58
2022/11/08 06:13:00;;;;;;;26.45;12.95;;;;;;;4.81;90.19;100882.48;1773781;80;21111;-59
2022/11/08 06:15:30;;;;;;;24.40;13.28;;;;;;;4.81;90.14;100877.05;1756659;80;21100;-57
2022/11/08 06:18:03;;;;;;;30.88;16.45;;;;;;;4.76;90.15;100870.22;1713716;83;21182;-57
2022/11/08 06:20:32;;;;;;;26.48;12.45;;;;;;;4.77;90.30;100861.06;1719299;83;21119;-58
2022/11/08 06:23:01;;;;;;;28.00;14.15;;;;;;;4.80;90.39;100857.70;1705669;83;21153;-58
2022/11/08 06:25:31;;;;;;;27.52;13.62;;;;;;;4.83;90.44;100854.69;1710770;83;21659;-59
2022/11/08 06:28:00;;;;;;;27.32;13.85;;;;;;;4.84;90.49;100856.39;1699588;83;21120;-59
2022/11/08 06:30:30;;;;;;;26.23;13.83;;;;;;;4.84;90.40;100853.69;1720397;83;21112;-59
2022/11/08 06:32:59;;;;;;;24.90;12.78;;;;;;;4.85;90.54;100856.25;1713244;83;21115;-59
2022/11/08 06:35:29;;;;;;;25.02;13.53;;;;;;;4.88;90.61;100840.16;1714932;83;21128;-58
2022/11/08 06:37:58;;;;;;;26.80;13.85;;;;;;;4.89;90.50;100841.88;1708780;83;21159;-58
2022/11/08 06:40:32;;;;;;;24.75;14.13;;;;;;;4.90;90.49;100849.02;1691723;84;21127;-59
2022/11/08 06:43:01;;;;;;;25.05;13.53;;;;;;;4.91;90.58;100848.01;1745992;80;21194;-59
2022/11/08 06:45:32;;;;;;;25.02;13.03;;;;;;;4.94;90.59;100850.42;1705668;83;21161;-58
2022/11/08 06:48:02;;;;;;;23.40;12.90;;;;;;;4.93;90.50;100856.86;1764877;80;21136;-58
2022/11/08 06:50:33;;;;;;;24.00;12.60;;;;;;;4.95;90.65;100860.27;1761321;80;21597;-58
2022/11/08 06:53:06;;;;;;;28.12;14.03;;;;;;;4.96;90.58;100858.77;1754547;80;21261;-59
2022/11/08 06:55:37;;;;;;;27.17;13.00;;;;;;;4.97;90.74;100865.91;1761354;80;21147;-59
2022/11/08 06:58:06;;;;;;;24.72;12.95;;;;;;;4.99;90.76;100858.47;1767193;80;21076;-59
2022/11/08 07:00:36;;;;;;;21.35;12.25;;;;;;;5.01;90.86;100855.60;1751975;80;21107;-58
2022/11/08 07:03:05;;;;;;;26.12;12.68;;;;;;;5.02;90.86;100850.02;1764770;80;21158;-59
2022/11/08 07:05:36;;;;;;;22.27;12.82;;;;;;;5.02;90.90;100847.80;1752217;80;21174;-59
2022/11/08 07:08:05;;;;;;;26.73;13.13;;;;;;;5.05;90.89;100848.86;1765012;80;21154;-61
2022/11/08 07:10:35;;;;;;;24.95;14.20;;;;;;;5.06;90.87;100849.21;1751931;80;21103;-58
2022/11/08 07:13:09;;;;;;;26.33;13.08;;;;;;;5.08;90.84;100852.12;1764614;80;21519;-59
2022/11/08 07:15:40;;;;;;;21.85;13.08;;;;;;;5.12;91.00;100854.54;1715401;83;21496;-59
2022/11/08 07:18:12;;;;;;;27.30;14.28;;;;;;;5.15;91.00;100847.45;1712470;83;21178;-58
2022/11/08 07:20:42;;;;;;;26.65;13.58;;;;;;;5.17;91.08;100855.80;1703318;83;21083;-58
2022/11/08 07:23:12;;;;;;;24.40;12.90;;;;;;;5.22;91.18;100857.59;1704348;83;21205;-58
2022/11/08 07:25:43;;;;;;;29.95;14.15;;;;;;;5.25;91.19;100862.72;1663831;86;21246;-61
2022/11/08 07:28:17;;;;;;;31.50;15.63;;;;;;;5.30;91.25;100857.67;1612584;88;21147;-63
2022/11/08 07:30:47;;;;;;;25.60;14.10;;;;;;;5.35;91.30;100864.88;1579814;89;21214;-58
2022/11/08 07:33:17;;;;;;;29.07;13.80;;;;;;;5.37;91.24;100864.21;1670517;84;21178;-59
2022/11/08 07:35:48;;;;;;;24.23;13.55;;;;;;;5.40;91.28;100861.69;1701491;83;21116;-61
2022/11/08 07:38:18;;;;;;;26.25;13.68;;;;;;;5.43;91.22;100864.10;1708339;83;21130;-59
2022/11/08 07:40:50;;;;;;;26.75;14.23;;;;;;;5.46;91.32;100862.94;1716561;83;21112;-59
2022/11/08 07:43:20;;;;;;;27.50;13.83;;;;;;;5.50;91.33;100863.84;1724667;82;21119;-59
2022/11/08 07:45:55;;;;;;;30.55;14.20;;;;;;;5.54;91.39;100865.75;1692714;83;21106;-59
2022/11/08 07:48:24;;;;;;;28.17;15.00;;;;;;;5.56;91.37;100862.38;1767034;80;21201;-60
2022/11/08 07:50:53;;;;;;;31.48;14.60;;;;;;;5.58;91.37;100864.43;1754683;80;21573;-59
2022/11/08 07:53:23;;;;;;;31.07;15.25;;;;;;;5.57;91.13;100864.94;1717325;83;21185;-59
2022/11/08 07:55:53;;;;;;;32.23;18.70;;;;;;;5.58;91.18;100864.43;1767095;80;21547;-61
2022/11/08 07:58:23;;;;;;;33.73;16.23;;;;;;;5.57;91.21;100860.00;1766740;80;21547;-60
2022/11/08 08:00:53;;;;;;;31.68;15.72;;;;;;;5.62;91.27;100869.91;1765794;80;21202;-59
2022/11/08 08:03:22;;;;;;;32.00;16.15;;;;;;;5.64;91.27;100871.97;1779689;80;21119;-59
2022/11/08 08:05:53;;;;;;;32.48;16.02;;;;;;;5.63;91.24;100873.83;1754422;80;21174;-59
2022/11/08 08:08:24;;;;;;;35.63;16.17;;;;;;;5.68;91.26;100859.77;1716413;83;21149;-59
2022/11/08 08:11:00;;;;;;;32.42;15.55;;;;;;;5.68;91.24;100860.63;1764267;80;21107;-60
2022/11/08 08:13:31;;;;;;;36.17;15.65;;;;;;;5.71;91.29;100854.02;1756727;80;21174;-62
2022/11/08 08:16:01;;;;;;;32.13;14.45;;;;;;;5.76;91.47;100851.70;1761763;80;21166;-63
2022/11/08 08:18:32;;;;;;;33.63;15.75;;;;;;;5.76;91.28;100852.20;1770594;80;21567;-60
2022/11/08 08:21:01;;;;;;;32.63;15.75;;;;;;;5.76;91.42;100850.84;1771851;80;21075;-61
2022/11/08 08:23:32;;;;;;;32.67;15.10;;;;;;;5.79;91.61;100852.74;1769439;80;21111;-61
2022/11/08 08:26:02;;;;;;;34.43;16.05;;;;;;;5.83;91.71;100844.63;1775396;80;21099;-63
2022/11/08 08:28:31;;;;;;;35.35;15.80;;;;;;;5.89;91.90;100852.22;1757659;80;21103;-62
2022/11/08 08:31:00;;;;;;;36.28;16.60;;;;;;;5.91;91.88;100854.28;1771814;80;21166;-61
2022/11/08 08:33:29;;;;;;;37.73;15.50;;;;;;;5.93;91.73;100859.05;1784317;79;21174;-64
2022/11/08 08:36:03;;;;;;;32.73;15.00;;;;;;;5.95;91.73;100857.53;1760323;79;21586;-60
2022/11/08 08:38:31;;;;;;;34.43;15.63;;;;;;;5.99;91.80;100863.87;1774929;79;21134;-61
2022/11/08 08:41:00;;;;;;;41.75;18.02;;;;;;;6.02;91.93;100861.34;1770336;80;21079;-62
2022/11/08 08:43:33;;;;;;;39.20;16.73;;;;;;;6.03;92.01;100863.05;1780641;80;21122;-61
2022/11/08 08:46:04;;;;;;;43.40;17.15;;;;;;;6.07;92.13;100854.92;1770530;80;21203;-61
2022/11/08 08:48:34;;;;;;;39.55;16.62;;;;;;;6.11;92.22;100855.46;1757147;80;21201;-62
2022/11/08 08:51:04;;;;;;;40.50;17.60;;;;;;;6.14;92.25;100861.44;1770261;80;21127;-61
2022/11/08 08:53:33;;;;;;;42.70;17.52;;;;;;;6.13;92.20;100856.16;1764536;80;21134;-61
2022/11/08 08:56:06;;;;;;;46.53;19.80;;;;;;;6.12;92.25;100854.45;1705726;83;21185;-62
2022/11/08 08:58:38;;;;;;;55.90;26.65;;;;;;;6.14;92.29;100857.86;1733558;82;21554;-63
2022/11/08 09:01:11;;;;;;;44.08;18.92;;;;;;;6.14;92.49;100853.28;1722892;82;21558;-62
2022/11/08 09:03:44;;;;;;;40.80;17.82;;;;;;;6.14;92.83;100848.34;1654704;86;21567;-62
2022/11/08 09:06:13;;;;;;;36.73;16.35;;;;;;;6.22;93.18;100850.62;1672497;85;21170;-62
2022/11/08 09:08:43;;;;;;;38.65;16.05;;;;;;;6.29;93.19;100855.77;1726362;82;21485;-62
2022/11/08 09:11:12;;;;;;;39.63;16.80;;;;;;;6.29;93.40;100859.00;1638484;86;21154;-63
2022/11/08 09:13:41;;;;;;;38.65;15.80;;;;;;;6.30;93.58;100852.55;1721354;82;21551;-63
2022/11/08 09:16:12;;;;;;;36.83;17.15;;;;;;;6.31;93.63;100854.25;1718081;83;21155;-64
2022/11/08 09:18:41;;;;;;;38.75;16.65;;;;;;;6.27;93.38;100853.72;1712484;82;21123;-62
2022/11/08 09:21:11;;;;;;;42.93;17.17;;;;;;;6.26;93.59;100856.59;1662007;83;21150;-61
2022/11/08 09:23:41;;;;;;;41.58;18.02;;;;;;;6.30;93.86;100851.19;1731453;83;21159;-62
2022/11/08 09:26:11;;;;;;;40.15;17.70;;;;;;;6.32;93.97;100851.38;1710855;83;21097;-62
2022/11/08 09:28:40;;;;;;;38.58;17.67;;;;;;;6.35;94.08;100852.92;1721437;83;21131;-62
2022/11/08 09:31:10;;;;;;;39.85;18.10;;;;;;;6.36;94.28;100847.31;1713500;83;21182;-62
2022/11/08 09:33:39;;;;;;;41.40;17.98;;;;;;;6.39;94.32;100852.95;1712792;83;21111;-63
2022/11/08 09:36:12;;;;;;;44.55;19.07;;;;;;;6.42;94.44;100844.46;1719655;83;21191;-62
2022/11/08 09:38:41;;;;;;;45.85;19.98;;;;;;;6.46;94.54;100847.72;1698331;83;21124;-62
2022/11/08 09:41:28;;;;;;;41.83;18.50;;;;;;;6.48;94.76;100850.63;1756206;80;21119;-62
2022/11/08 09:44:22;;;;;;;41.15;18.82;;;;;;;6.54;95.02;100851.38;1695927;84;21714;-62
2022/11/08 09:47:12;;;;;;;45.30;19.48;;;;;;;6.63;95.15;100853.64;1770676;81;21123;-63
2022/11/08 09:50:23;;;;;;;43.83;19.05;;;;;;;6.71;95.28;100847.39;1752640;80;21139;-62
2022/11/08 09:53:17;;;;;;;38.50;17.50;;;;;;;6.78;95.34;100848.45;1757036;79;21146;-61
2022/11/08 09:56:13;;;;;;;44.13;19.40;;;;;;;6.85;95.29;100849.50;1731842;82;21178;-64
2022/11/08 09:58:48;;;;;;;45.23;21.87;;;;;;;6.93;95.46;100847.67;1756644;81;21532;-64
2022/11/08 10:01:17;;;;;;;40.95;19.57;;;;;;;6.99;95.43;100840.72;1760188;81;21111;-62
2022/11/08 10:03:50;;;;;;;43.35;19.25;;;;;;;7.01;95.37;100840.05;1766934;80;21167;-62
2022/11/08 10:07:02;;;;;;;50.00;19.75;;;;;;;7.08;95.41;100837.01;1760711;81;21151;-63
2022/11/08 10:09:54;;;;;;;49.15;20.12;;;;;;;7.12;95.34;100837.53;1758718;80;21155;-62
2022/11/08 10:12:42;;;;;;;46.75;20.45;;;;;;;7.13;95.11;100834.64;1756670;81;21219;-62
2022/11/08 10:15:21;;;;;;;47.17;18.77;;;;;;;7.14;95.08;100833.63;1745063;81;21180;-63
2022/11/08 10:18:19;;;;;;;55.92;21.05;;;;;;;7.16;95.02;100831.62;1764900;80;21147;-64
2022/11/08 10:21:03;;;;;;;44.08;19.92;;;;;;;7.20;95.04;100833.00;1707961;84;21115;-62
2022/11/08 10:23:43;;;;;;;62.10;24.85;;;;;;;7.26;95.05;100828.24;1747379;81;21135;-63
2022/11/08 10:26:18;;;;;;;56.50;20.80;;;;;;;7.29;94.97;100829.28;1739977;80;21127;-63
2022/11/08 10:29:07;;;;;;;48.35;21.62;;;;;;;7.33;94.89;100824.86;1756270;81;21179;-63
2022/11/08 10:31:37;;;;;;;49.03;21.93;;;;;;;7.39;94.84;100837.82;1700252;84;21614;-63
2022/11/08 10:34:14;;;;;;;56.08;25.32;;;;;;;7.43;94.63;100830.50;1751853;81;21083;-62
2022/11/08 10:36:48;;;;;;;50.28;22.60;;;;;;;7.48;94.62;100835.45;1745749;80;21491;-62
2022/11/08 10:39:26;;;;;;;57.75;22.00;;;;;;;7.54;94.62;100834.27;1751741;80;21007;-63
2022/11/08 10:42:03;;;;;;;45.20;19.37;;;;;;;7.59;94.51;100833.77;1751887;80;21059;-63
2022/11/08 10:44:34;;;;;;;46.02;19.82;;;;;;;7.65;94.37;100831.73;1774357;80;21069;-62
2022/11/08 10:47:05;;;;;;;38.53;19.20;;;;;;;7.70;94.29;100828.50;1751770;80;21012;-61
2022/11/08 10:49:38;;;;;;;54.18;21.00;;;;;;;7.76;94.30;100830.05;1751796;80;21071;-63
2022/11/08 10:52:20;;;;;;;47.95;19.45;;;;;;;7.82;94.25;100830.77;1751769;80;21107;-62
2022/11/08 10:55:00;;;;;;;44.33;19.05;;;;;;;7.85;94.03;100833.15;1700509;83;21078;-62
2022/11/08 10:57:46;;;;;;;47.10;20.35;;;;;;;7.88;93.90;100830.08;1700541;84;21040;-62
2022/11/08 11:00:28;;;;;;;44.77;21.07;;;;;;;7.91;93.67;100832.98;1715039;83;21037;-61
2022/11/08 11:03:07;;;;;;;62.43;22.07;;;;;;;7.94;93.67;100836.73;1720541;83;21521;-62
2022/11/08 11:05:43;;;;;;;64.07;26.23;;;;;;;8.00;93.59;100840.66;1708544;83;21017;-62
2022/11/08 11:08:14;;;;;;;48.27;21.77;;;;;;;8.07;93.61;100835.72;1702561;83;21122;-63
2022/11/08 11:10:45;;;;;;;70.00;30.55;;;;;;;8.14;93.57;100829.91;1706400;83;21763;-63
2022/11/08 11:13:27;;;;;;;59.25;27.07;;;;;;;8.17;93.40;100828.20;1705374;83;21053;-61
2022/11/08 11:16:03;;;;;;;91.97;37.05;;;;;;;8.23;93.35;100839.80;1719721;83;21031;-61
2022/11/08 11:18:47;;;;;;;74.00;30.40;;;;;;;8.28;93.29;100831.95;1719417;83;21080;-61
2022/11/08 11:21:21;;;;;;;61.85;28.90;;;;;;;8.32;93.14;100831.09;1732233;81;21059;-62
2022/11/08 11:23:58;;;;;;;52.48;24.90;;;;;;;8.37;92.99;100833.33;1716578;83;21089;-62
2022/11/08 11:26:33;;;;;;;50.48;21.48;;;;;;;8.41;92.83;100838.78;1716077;83;21403;-64
2022/11/08 11:29:16;;;;;;;56.55;23.42;;;;;;;8.42;92.67;100837.76;1724408;83;22194;-61
2022/11/08 11:31:48;;;;;;;52.62;23.30;;;;;;;8.43;92.39;100843.05;1740353;80;21118;-63
2022/11/08 11:34:22;;;;;;;55.05;25.32;;;;;;;8.47;92.39;100846.31;1769176;80;21000;-62
2022/11/08 11:37:12;;;;;;;60.35;28.15;;;;;;;8.54;92.39;100847.33;1756473;80;21035;-62
2022/11/08 11:40:10;;;;;;;55.38;24.72;;;;;;;8.58;92.29;100848.17;1760854;80;21047;-63
2022/11/08 11:43:11;;;;;;;56.40;23.35;;;;;;;8.65;92.33;100846.11;1761777;80;20980;-62
2022/11/08 11:45:59;;;;;;;51.77;22.67;;;;;;;8.69;92.17;100845.59;1773663;80;21035;-63
2022/11/08 11:48:31;;;;;;;55.60;24.40;;;;;;;8.74;91.89;100848.65;1767853;80;20991;-61
2022/11/08 11:51:02;;;;;;;51.98;24.07;;;;;;;8.76;91.70;100845.74;1774648;80;21478;-62
2022/11/08 11:53:37;;;;;;;54.58;24.18;;;;;;;8.78;91.58;100851.37;1767639;80;21516;-61
2022/11/08 11:56:43;;;;;;;;;;;;;;;8.81;91.36;100853.75;1757569;80;21428;-63
2022/11/08 11:59:45;;;;;;;49.67;23.70;;;;;;;8.86;91.25;100854.59;1770389;80;20171;-63
2022/11/08 12:02:50;;;;;;;47.88;21.95;;;;;;;8.90;91.23;100849.11;1706162;82;21051;-62
2022/11/08 12:06:04;;;;;;;41.55;20.82;;;;;;;8.92;91.03;100847.05;1714229;83;21029;-65
2022/11/08 12:09:01;;;;;;;43.30;20.82;;;;;;;8.92;90.85;100849.78;1720140;82;22183;-64